Terminal Aerodrome Forecast
Issued by NWS

Home | Current Version | Previous Version | Text Only | Print | Product List | Glossary On
Versions: 1 2 3 4 5 6 7 8 9 10 11 12 13 14 15 16 17 18 19 20
000
FTUS42 KGSP 241900 AAA
TAFGMU
TAF AMD
KGMU 241935Z 2420/2518 25009KT P6SM VCSH SCT040 BKN100
      TEMPO 2421/2423 VRB12G22KT 4SM TSRA BKN025CB
     FM242300 25006KT P6SM VCSH BKN045
     FM250100 00000KT P6SM SCT045
     FM251000 36003KT 5SM BR SCT250
     FM251300 04004KT P6SM FEW045=

USA.gov is the U.S. government's official web portal to all federal, state and local government web resources and services.